createdAt,value
2019-04-25T00:01:25.354Z,15.75
2019-04-25T00:03:55.305Z,14.98
2019-04-25T00:06:25.982Z,13.38
2019-04-25T00:08:56.073Z,13.45
2019-04-25T00:11:26.202Z,13.10
2019-04-25T00:13:56.152Z,12.95
2019-04-25T00:16:28.019Z,12.35
2019-04-25T00:18:58.258Z,12.00
2019-04-25T00:21:33.837Z,11.78
2019-04-25T00:24:06.158Z,11.48
2019-04-25T00:26:37.837Z,12.13
2019-04-25T00:29:07.893Z,11.55
2019-04-25T00:31:37.815Z,12.23
2019-04-25T00:34:08.679Z,13.05
2019-04-25T00:36:39.115Z,11.80
2019-04-25T00:39:09.305Z,12.93
2019-04-25T00:41:39.378Z,12.85
2019-04-25T00:44:09.375Z,12.28
2019-04-25T00:46:44.802Z,12.00
2019-04-25T00:49:12.315Z,11.95
2019-04-25T00:51:43.467Z,12.53
2019-04-25T00:54:13.883Z,12.73
2019-04-25T00:56:46.059Z,11.60
2019-04-25T00:59:17.155Z,12.50
2019-04-25T01:01:52.962Z,12.43
2019-04-25T01:04:23.694Z,13.65
2019-04-25T01:06:53.974Z,12.47
2019-04-25T01:09:25.659Z,13.08
2019-04-25T01:11:55.724Z,13.08
2019-04-25T01:14:25.709Z,12.78
2019-04-25T01:16:55.655Z,13.35
2019-04-25T01:19:26.762Z,12.37
2019-04-25T01:21:56.705Z,12.80
2019-04-25T01:24:26.834Z,12.45
2019-04-25T01:26:56.893Z,13.08
2019-04-25T01:29:26.812Z,13.48
2019-04-25T01:31:56.826Z,12.33
2019-04-25T01:34:34.176Z,13.65
2019-04-25T01:37:06.019Z,14.07
2019-04-25T01:39:44.209Z,14.00
2019-04-25T01:42:25.884Z,13.25
2019-04-25T01:44:56.882Z,13.93
2019-04-25T01:47:27.639Z,13.25
2019-04-25T01:49:58.448Z,13.68
2019-04-25T01:52:28.517Z,13.53
2019-04-25T01:54:58.897Z,13.85
2019-04-25T01:57:28.884Z,12.90
2019-04-25T01:59:58.866Z,13.15
2019-04-25T02:02:30.143Z,13.78
2019-04-25T02:05:00.282Z,13.45
2019-04-25T02:07:30.426Z,12.65
2019-04-25T02:10:00.367Z,12.68
2019-04-25T02:12:34.837Z,12.75
2019-04-25T02:15:06.238Z,11.40
2019-04-25T02:17:36.396Z,10.82
2019-04-25T02:20:06.910Z,11.40
2019-04-25T02:22:36.989Z,11.30
2019-04-25T02:25:08.833Z,11.28
2019-04-25T02:27:38.786Z,11.50
2019-04-25T02:30:10.271Z,11.05
2019-04-25T02:32:40.285Z,11.08
2019-04-25T02:35:10.570Z,10.90
2019-04-25T02:37:40.596Z,11.65
2019-04-25T02:40:11.186Z,11.60
2019-04-25T02:42:41.380Z,11.45
2019-04-25T02:45:24.507Z,12.45
2019-04-25T02:47:59.715Z,12.13
2019-04-25T02:50:34.343Z,12.00
2019-04-25T02:53:08.770Z,12.18
2019-04-25T02:55:38.797Z,12.30
2019-04-25T02:58:10.216Z,13.00
2019-04-25T03:00:55.090Z,13.08
2019-04-25T03:03:14.773Z,12.68
2019-04-25T03:05:47.292Z,13.08
2019-04-25T03:08:15.932Z,12.93
2019-04-25T03:10:45.887Z,14.40
2019-04-25T03:13:15.948Z,13.95
2019-04-25T03:15:46.093Z,14.70
2019-04-25T03:18:17.669Z,14.38
2019-04-25T03:20:52.068Z,14.43
2019-04-25T03:23:30.223Z,14.40
2019-04-25T03:26:03.830Z,14.93
2019-04-25T03:28:33.950Z,14.15
2019-04-25T03:31:09.281Z,14.75
2019-04-25T03:33:38.459Z,16.77
2019-04-25T03:36:07.870Z,14.83
2019-04-25T03:38:38.220Z,13.93
2019-04-25T03:41:08.685Z,15.48
2019-04-25T03:43:38.804Z,14.83
2019-04-25T03:46:08.750Z,14.58
2019-04-25T03:48:38.794Z,13.80
2019-04-25T03:51:08.743Z,15.32
2019-04-25T03:53:38.697Z,15.48
2019-04-25T03:56:08.721Z,14.45
2019-04-25T03:58:38.749Z,14.85
2019-04-25T04:01:09.633Z,14.85
2019-04-25T04:03:39.607Z,15.05
2019-04-25T04:06:09.907Z,15.88
2019-04-25T04:08:40.044Z,16.42
2019-04-25T04:11:10.178Z,22.73
2019-04-25T04:13:40.310Z,19.27
2019-04-25T04:16:10.515Z,17.70
2019-04-25T04:18:44.052Z,16.70
2019-04-25T04:21:27.601Z,15.85
2019-04-25T04:23:59.224Z,16.75
2019-04-25T04:26:29.216Z,16.82
2019-04-25T04:28:59.194Z,17.15
2019-04-25T04:31:29.151Z,17.62
2019-04-25T04:33:59.091Z,18.30
2019-04-25T04:36:29.030Z,16.07
2019-04-25T04:38:59.158Z,17.05
2019-04-25T04:41:29.190Z,16.60
2019-04-25T04:43:59.201Z,16.35
2019-04-25T04:46:29.510Z,15.90
2019-04-25T04:48:59.481Z,15.93
2019-04-25T04:51:29.571Z,15.23
2019-04-25T04:53:59.520Z,16.02
2019-04-25T04:56:29.537Z,38.73
2019-04-25T04:58:59.652Z,45.73
2019-04-25T05:01:31.335Z,46.55
2019-04-25T05:04:09.009Z,61.15
2019-04-25T05:06:53.726Z,38.98
2019-04-25T05:09:25.471Z,32.30
2019-04-25T05:11:55.494Z,34.43
2019-04-25T05:14:26.678Z,33.85
2019-04-25T05:16:56.899Z,30.92
2019-04-25T05:19:26.982Z,23.05
2019-04-25T05:21:56.949Z,19.50
2019-04-25T05:24:26.931Z,19.50
2019-04-25T05:26:56.940Z,17.00
2019-04-25T05:29:26.915Z,17.45
2019-04-25T05:31:56.869Z,16.02
2019-04-25T05:34:26.827Z,16.00
2019-04-25T05:36:56.782Z,14.95
2019-04-25T05:39:26.812Z,14.13
2019-04-25T05:42:07.782Z,14.73
2019-04-25T05:44:37.887Z,14.05
2019-04-25T05:47:07.896Z,15.93
2019-04-25T05:49:37.899Z,20.23
2019-04-25T05:52:08.135Z,21.12
2019-04-25T05:54:38.081Z,21.70
2019-04-25T05:57:08.076Z,21.55
2019-04-25T05:59:38.021Z,21.30
2019-04-25T06:02:08.112Z,21.10
2019-04-25T06:04:38.075Z,21.62
2019-04-25T06:07:08.294Z,19.45
2019-04-25T06:09:39.888Z,19.67
2019-04-25T06:12:26.507Z,19.12
2019-04-25T06:14:56.495Z,18.55
2019-04-25T06:17:37.055Z,15.23
2019-04-25T06:20:08.975Z,15.28
2019-04-25T06:22:49.878Z,13.18
2019-04-25T06:25:24.092Z,12.28
2019-04-25T06:27:58.562Z,13.32
2019-04-25T06:30:28.297Z,11.95
2019-04-25T06:32:58.383Z,10.40
2019-04-25T06:35:29.430Z,11.55
2019-04-25T06:37:59.597Z,11.57
2019-04-25T06:40:30.683Z,10.35
2019-04-25T06:43:00.954Z,10.70
2019-04-25T06:45:50.067Z,11.50
2019-04-25T06:48:25.020Z,12.53
2019-04-25T06:50:55.427Z,12.40
2019-04-25T06:53:26.060Z,12.20
2019-04-25T06:55:56.896Z,9.90
2019-04-25T06:58:28.455Z,9.70
2019-04-25T07:01:00.980Z,9.35
2019-04-25T07:03:30.175Z,7.80
2019-04-25T07:06:00.118Z,7.85
2019-04-25T07:08:30.059Z,8.60
2019-04-25T07:11:00.010Z,8.05
2019-04-25T07:13:30.463Z,8.73
2019-04-25T07:16:00.588Z,7.72
2019-04-25T07:18:33.102Z,8.38
2019-04-25T07:21:03.370Z,8.33
2019-04-25T07:23:34.618Z,7.45
2019-04-25T07:26:07.184Z,7.47
2019-04-25T07:28:55.544Z,6.42
2019-04-25T07:31:36.961Z,6.83
2019-04-25T07:34:08.833Z,6.72
2019-04-25T07:36:38.804Z,6.53
2019-04-25T07:39:10.509Z,6.60
2019-04-25T07:41:40.932Z,5.72
2019-04-25T07:44:10.569Z,6.33
2019-04-25T07:46:40.709Z,6.42
2019-04-25T07:49:10.889Z,5.85
2019-04-25T07:51:40.600Z,6.33
2019-04-25T07:54:10.547Z,6.28
2019-04-25T07:56:40.194Z,6.50
2019-04-25T07:59:10.485Z,5.75
2019-04-25T08:01:40.500Z,5.62
2019-04-25T08:04:10.523Z,5.17
2019-04-25T08:06:40.484Z,5.00
2019-04-25T08:09:12.255Z,5.33
2019-04-25T08:11:43.409Z,5.05
2019-04-25T08:14:17.661Z,5.65
2019-04-25T08:17:04.507Z,5.28
2019-04-25T08:19:35.535Z,5.50
2019-04-25T08:22:05.994Z,4.78
2019-04-25T08:24:37.238Z,4.78
2019-04-25T08:27:07.400Z,5.47
2019-04-25T08:29:39.503Z,4.80
2019-04-25T08:32:08.998Z,4.53
2019-04-25T08:34:39.012Z,4.85
2019-04-25T08:37:18.117Z,4.37
2019-04-25T08:39:40.626Z,5.28
2019-04-25T08:42:10.566Z,4.95
2019-04-25T08:44:41.341Z,4.95
2019-04-25T08:47:11.459Z,5.10
2019-04-25T08:49:45.422Z,4.97
2019-04-25T08:52:14.414Z,4.53
2019-04-25T08:54:48.927Z,4.90
2019-04-25T08:57:23.634Z,4.40
2019-04-25T08:59:56.792Z,4.53
2019-04-25T09:02:28.498Z,5.10
2019-04-25T09:05:18.592Z,4.25
2019-04-25T09:07:48.671Z,4.58
2019-04-25T09:10:18.656Z,4.03
2019-04-25T09:12:48.389Z,4.63
2019-04-25T09:15:18.336Z,4.00
2019-04-25T09:17:48.473Z,4.47
2019-04-25T09:20:18.738Z,4.10
2019-04-25T09:22:49.397Z,4.60
2019-04-25T09:25:20.052Z,4.03
2019-04-25T09:27:49.691Z,4.00
2019-04-25T09:30:20.659Z,4.63
2019-04-25T09:32:50.351Z,4.13
2019-04-25T09:35:20.302Z,3.98
2019-04-25T09:37:50.247Z,4.15
2019-04-25T09:40:20.441Z,3.80
2019-04-25T09:42:50.379Z,3.60
2019-04-25T09:45:31.434Z,4.37
2019-04-25T09:48:05.399Z,4.50
2019-04-25T09:50:38.234Z,4.23
2019-04-25T09:53:20.789Z,4.40
2019-04-25T09:55:41.767Z,4.03
2019-04-25T09:58:13.635Z,4.20
2019-04-25T10:00:46.330Z,3.87
2019-04-25T10:03:17.069Z,3.23
2019-04-25T10:05:46.874Z,3.63
2019-04-25T10:08:16.695Z,3.17
2019-04-25T10:10:46.752Z,4.10
2019-04-25T10:13:16.639Z,4.07
2019-04-25T10:16:03.996Z,3.60
2019-04-25T10:18:34.743Z,3.60
2019-04-25T10:21:06.758Z,3.30
2019-04-25T10:23:36.044Z,3.70
2019-04-25T10:26:06.748Z,3.47
2019-04-25T10:28:36.222Z,3.10
2019-04-25T10:31:05.772Z,3.90
2019-04-25T10:33:35.085Z,3.23
2019-04-25T10:36:05.845Z,3.30
2019-04-25T10:38:36.231Z,3.10
2019-04-25T10:41:06.123Z,3.63
2019-04-25T10:43:36.856Z,3.40
2019-04-25T10:46:06.815Z,3.37
2019-04-25T10:48:37.087Z,3.73
2019-04-25T10:51:06.918Z,3.40
2019-04-25T10:53:36.213Z,3.30
2019-04-25T10:56:06.195Z,3.40
2019-04-25T10:58:36.871Z,3.67
2019-04-25T11:01:07.102Z,3.10
2019-04-25T11:03:44.569Z,3.33
2019-04-25T11:06:16.574Z,3.50
2019-04-25T11:08:46.987Z,3.20
2019-04-25T11:11:17.474Z,3.60
2019-04-25T11:13:47.093Z,3.07
2019-04-25T11:16:17.095Z,3.40
2019-04-25T11:18:47.595Z,3.27
2019-04-25T11:21:17.554Z,3.27
2019-04-25T11:23:48.820Z,3.30
2019-04-25T11:26:18.391Z,3.33
2019-04-25T11:28:48.802Z,3.10
2019-04-25T11:31:23.359Z,3.80
2019-04-25T11:33:54.517Z,3.40
2019-04-25T11:36:25.020Z,3.00
2019-04-25T11:38:57.051Z,3.00
2019-04-25T11:41:26.676Z,2.83
2019-04-25T11:43:56.819Z,2.60
2019-04-25T11:46:26.807Z,2.70
2019-04-25T11:48:56.458Z,3.07
2019-04-25T11:51:25.835Z,2.97
2019-04-25T11:53:55.568Z,2.93
2019-04-25T11:56:25.127Z,3.07
2019-04-25T11:58:55.225Z,2.90
2019-04-25T12:01:25.064Z,2.87
2019-04-25T12:03:55.762Z,2.73
2019-04-25T12:06:25.699Z,3.03
2019-04-25T12:08:56.393Z,2.67
2019-04-25T12:11:25.834Z,2.93
2019-04-25T12:13:55.390Z,3.07
2019-04-25T12:16:25.687Z,3.10
2019-04-25T12:18:56.513Z,3.77
2019-04-25T12:21:27.360Z,2.60
2019-04-25T12:23:58.019Z,2.70
2019-04-25T12:26:28.783Z,3.03
2019-04-25T12:28:58.458Z,3.47
2019-04-25T12:31:28.156Z,3.30
2019-04-25T12:33:57.783Z,3.13
2019-04-25T12:36:28.507Z,3.17
2019-04-25T12:38:58.981Z,2.90
2019-04-25T12:41:28.763Z,2.83
2019-04-25T12:44:03.678Z,2.80
2019-04-25T12:46:38.095Z,2.53
2019-04-25T12:49:07.720Z,2.80
2019-04-25T12:51:37.019Z,3.00
2019-04-25T12:54:06.677Z,2.63
2019-04-25T12:56:37.360Z,3.27
2019-04-25T12:59:07.414Z,2.80
2019-04-25T13:01:37.275Z,3.27
2019-04-25T13:04:07.082Z,2.97
2019-04-25T13:06:36.769Z,3.10
2019-04-25T13:09:07.176Z,3.10
2019-04-25T13:11:38.557Z,2.70
2019-04-25T13:14:08.474Z,3.07
2019-04-25T13:16:38.903Z,3.30
2019-04-25T13:19:20.045Z,2.90
2019-04-25T13:21:41.042Z,3.10
2019-04-25T13:24:13.427Z,2.80
2019-04-25T13:26:56.992Z,2.77
2019-04-25T13:29:30.946Z,2.87
2019-04-25T13:32:18.450Z,2.57
2019-04-25T13:34:53.767Z,2.63
2019-04-25T13:37:24.209Z,3.80
2019-04-25T13:39:54.746Z,3.13
2019-04-25T13:42:24.423Z,2.87
2019-04-25T13:44:54.366Z,2.83
2019-04-25T13:47:27.935Z,3.53
2019-04-25T13:49:57.650Z,3.23
2019-04-25T13:52:27.532Z,3.20
2019-04-25T13:54:57.267Z,3.40
2019-04-25T13:57:27.813Z,3.40
2019-04-25T13:59:57.583Z,3.37
2019-04-25T14:02:27.247Z,3.50
2019-04-25T14:04:56.974Z,3.00
2019-04-25T14:07:27.327Z,2.83
2019-04-25T14:09:57.155Z,3.30
2019-04-25T14:12:28.738Z,3.27
2019-04-25T14:14:58.243Z,3.13
2019-04-25T14:17:47.843Z,3.20
2019-04-25T14:20:28.409Z,3.47
2019-04-25T14:22:58.305Z,3.03
2019-04-25T14:25:29.796Z,3.43
2019-04-25T14:27:59.570Z,2.90
2019-04-25T14:30:30.938Z,3.33
2019-04-25T14:33:00.577Z,3.37
2019-04-25T14:35:31.144Z,3.30
2019-04-25T14:38:00.860Z,3.27
2019-04-25T14:40:31.379Z,3.20
2019-04-25T14:43:01.054Z,3.20
2019-04-25T14:45:42.445Z,3.60
2019-04-25T14:48:02.221Z,2.47
2019-04-25T14:50:32.145Z,3.20
2019-04-25T14:53:01.874Z,3.13
2019-04-25T14:55:49.606Z,3.40
2019-04-25T14:58:19.729Z,3.10
2019-04-25T15:00:50.670Z,3.37
2019-04-25T15:03:20.478Z,3.33
2019-04-25T15:05:50.103Z,3.00
2019-04-25T15:08:19.762Z,3.50
2019-04-25T15:10:50.463Z,3.30
2019-04-25T15:13:20.175Z,3.40
2019-04-25T15:15:49.835Z,3.43
2019-04-25T15:18:19.462Z,3.43
2019-04-25T15:20:48.804Z,2.90
2019-04-25T15:23:18.393Z,3.07
2019-04-25T15:25:48.107Z,3.20
2019-04-25T15:28:18.193Z,2.90
2019-04-25T15:30:47.880Z,3.47
2019-04-25T15:33:17.528Z,3.37
2019-04-25T15:35:52.460Z,3.20
2019-04-25T15:38:26.968Z,3.33
2019-04-25T15:41:08.299Z,3.37
2019-04-25T15:43:39.673Z,3.70
2019-04-25T15:46:16.863Z,3.80
2019-04-25T15:48:46.622Z,3.30
2019-04-25T15:51:16.406Z,4.70
2019-04-25T15:53:46.253Z,7.77
2019-04-25T15:56:16.121Z,3.40
2019-04-25T15:58:45.892Z,3.50
2019-04-25T16:01:16.058Z,4.10
2019-04-25T16:03:45.840Z,3.80
2019-04-25T16:06:15.535Z,3.90
2019-04-25T16:08:45.596Z,4.33
2019-04-25T16:11:15.376Z,5.33
2019-04-25T16:13:46.045Z,4.70
2019-04-25T16:16:15.673Z,5.70
2019-04-25T16:18:45.323Z,3.93
2019-04-25T16:21:15.159Z,4.30
2019-04-25T16:23:45.063Z,4.00
2019-04-25T16:26:15.091Z,4.30
2019-04-25T16:28:44.745Z,3.80
2019-04-25T16:31:16.324Z,3.90
2019-04-25T16:33:45.997Z,4.13
2019-04-25T16:36:15.702Z,3.93
2019-04-25T16:38:45.452Z,3.87
2019-04-25T16:41:15.267Z,4.00
2019-04-25T16:43:46.855Z,4.33
2019-04-25T16:46:17.721Z,4.17
2019-04-25T16:48:47.443Z,4.27
2019-04-25T16:51:17.458Z,3.90
2019-04-25T16:53:47.129Z,4.43
2019-04-25T16:56:16.820Z,4.03
2019-04-25T16:58:46.504Z,3.83
2019-04-25T17:01:16.436Z,6.80
2019-04-25T17:03:46.070Z,4.17
2019-04-25T17:06:16.072Z,4.10
2019-04-25T17:08:46.537Z,3.60
2019-04-25T17:11:16.581Z,4.27
2019-04-25T17:13:47.871Z,4.23
2019-04-25T17:16:36.765Z,4.63
2019-04-25T17:19:08.223Z,4.60
2019-04-25T17:21:37.915Z,4.40
2019-04-25T17:24:07.634Z,3.67
2019-04-25T17:26:37.302Z,4.50
2019-04-25T17:29:08.670Z,4.40
2019-04-25T17:31:43.049Z,4.60
2019-04-25T17:34:23.738Z,4.40
2019-04-25T17:37:04.095Z,4.97
2019-04-25T17:39:38.474Z,5.13
2019-04-25T17:42:08.503Z,4.73
2019-04-25T17:44:40.551Z,5.10
2019-04-25T17:47:10.464Z,5.37
2019-04-25T17:49:40.096Z,5.07
2019-04-25T17:52:09.851Z,5.10
2019-04-25T17:54:39.501Z,5.20
2019-04-25T17:57:09.223Z,5.13
2019-04-25T17:59:39.234Z,5.67
2019-04-25T18:02:09.187Z,5.07
2019-04-25T18:04:38.826Z,5.57
2019-04-25T18:07:08.707Z,5.47
2019-04-25T18:09:38.683Z,5.23
2019-04-25T18:12:08.361Z,7.07
2019-04-25T18:14:38.438Z,5.87
2019-04-25T18:17:08.468Z,5.97
2019-04-25T18:19:45.601Z,6.90
2019-04-25T18:22:20.609Z,6.13
2019-04-25T18:24:54.974Z,6.70
2019-04-25T18:27:30.228Z,6.30
2019-04-25T18:30:00.261Z,7.30
2019-04-25T18:32:31.849Z,5.90
2019-04-25T18:35:03.223Z,5.97
2019-04-25T18:37:47.157Z,6.40
2019-04-25T18:40:24.272Z,6.47
2019-04-25T18:43:02.889Z,6.30
2019-04-25T18:45:34.540Z,6.15
2019-04-25T18:48:04.807Z,6.70
2019-04-25T18:50:36.251Z,6.40
2019-04-25T18:53:08.562Z,6.23
2019-04-25T18:55:55.243Z,6.87
2019-04-25T18:58:33.095Z,6.10
2019-04-25T19:01:10.560Z,6.30
2019-04-25T19:04:00.262Z,6.62
2019-04-25T19:06:32.754Z,7.83
2019-04-25T19:09:02.408Z,6.37
2019-04-25T19:11:33.667Z,7.00
2019-04-25T19:14:03.352Z,7.90
2019-04-25T19:16:32.967Z,8.70
2019-04-25T19:19:02.905Z,13.22
2019-04-25T19:21:33.377Z,11.15
2019-04-25T19:24:03.591Z,10.05
2019-04-25T19:26:33.575Z,7.22
2019-04-25T19:29:03.283Z,8.50
2019-04-25T19:31:32.927Z,8.00
2019-04-25T19:34:02.576Z,7.80
2019-04-25T19:36:32.226Z,7.77
2019-04-25T19:39:01.940Z,8.10
2019-04-25T19:41:35.030Z,8.10
2019-04-25T19:44:06.658Z,7.53
2019-04-25T19:46:41.472Z,8.03
2019-04-25T19:49:12.867Z,7.17
2019-04-25T19:51:43.040Z,7.60
2019-04-25T19:54:12.806Z,8.20
2019-04-25T19:56:43.675Z,8.80
2019-04-25T19:59:14.084Z,10.40
2019-04-25T20:01:44.152Z,10.60
2019-04-25T20:04:15.706Z,8.30
2019-04-25T20:07:03.516Z,8.67
2019-04-25T20:09:34.784Z,7.97
2019-04-25T20:12:05.010Z,8.05
2019-04-25T20:14:34.635Z,8.50
2019-04-25T20:17:04.264Z,8.73
2019-04-25T20:19:34.008Z,9.47
2019-04-25T20:22:03.915Z,8.97
2019-04-25T20:24:33.722Z,9.40
2019-04-25T20:27:05.446Z,8.73
2019-04-25T20:29:35.066Z,8.33
2019-04-25T20:32:07.012Z,8.73
2019-04-25T20:34:36.430Z,9.28
2019-04-25T20:37:06.146Z,8.80
2019-04-25T20:39:36.184Z,9.35
2019-04-25T20:42:05.949Z,8.77
2019-04-25T20:44:36.673Z,8.87
2019-04-25T20:47:06.791Z,9.03
2019-04-25T20:49:37.072Z,9.75
2019-04-25T20:52:07.115Z,9.90
2019-04-25T20:54:37.147Z,9.28
2019-04-25T20:57:07.110Z,9.58
2019-04-25T20:59:37.240Z,9.78
2019-04-25T21:02:08.350Z,11.40
2019-04-25T21:04:44.492Z,10.90
2019-04-25T21:07:14.533Z,10.60
2019-04-25T21:09:44.546Z,13.60
2019-04-25T21:12:14.522Z,14.50
2019-04-25T21:14:46.198Z,12.05
2019-04-25T21:17:23.727Z,11.85
2019-04-25T21:19:56.284Z,12.73
2019-04-25T21:22:26.466Z,11.35
2019-04-25T21:24:56.521Z,10.50
2019-04-25T21:27:26.635Z,10.72
2019-04-25T21:29:57.687Z,11.18
2019-04-25T21:32:27.818Z,11.22
2019-04-25T21:34:58.042Z,11.15
2019-04-25T21:37:29.469Z,11.38
2019-04-25T21:40:07.176Z,11.55
2019-04-25T21:42:39.230Z,11.03
2019-04-25T21:45:09.826Z,11.28
2019-04-25T21:47:40.075Z,11.95
2019-04-25T21:50:10.446Z,18.85
2019-04-25T21:52:40.622Z,12.28
2019-04-25T21:55:10.825Z,11.65
2019-04-25T21:57:41.142Z,12.30
2019-04-25T22:00:15.031Z,12.25
2019-04-25T22:02:46.894Z,11.63
2019-04-25T22:05:17.142Z,12.70
2019-04-25T22:07:47.785Z,13.45
2019-04-25T22:10:18.002Z,12.40
2019-04-25T22:12:48.533Z,12.40
2019-04-25T22:15:19.304Z,12.33
2019-04-25T22:17:49.264Z,11.68
2019-04-25T22:20:19.316Z,12.35
2019-04-25T22:22:49.642Z,12.73
2019-04-25T22:25:19.665Z,13.43
2019-04-25T22:27:50.411Z,12.03
2019-04-25T22:30:20.511Z,12.07
2019-04-25T22:33:05.432Z,11.85
2019-04-25T22:35:37.693Z,11.43
2019-04-25T22:38:08.238Z,12.28
2019-04-25T22:40:38.022Z,11.65
2019-04-25T22:43:08.045Z,11.55
2019-04-25T22:45:38.414Z,12.10
2019-04-25T22:48:08.698Z,12.07
2019-04-25T22:50:38.675Z,11.68
2019-04-25T22:53:20.884Z,12.15
2019-04-25T22:55:40.387Z,13.05
2019-04-25T22:58:10.343Z,13.22
2019-04-25T23:00:40.555Z,12.85
2019-04-25T23:03:14.130Z,12.78
2019-04-25T23:05:45.825Z,12.78
2019-04-25T23:08:16.404Z,12.60
2019-04-25T23:10:46.475Z,12.90
2019-04-25T23:13:16.751Z,13.18
2019-04-25T23:15:46.723Z,13.50
2019-04-25T23:18:17.071Z,14.38
2019-04-25T23:20:47.058Z,13.10
2019-04-25T23:23:17.294Z,14.05
2019-04-25T23:25:58.191Z,13.53
2019-04-25T23:28:29.819Z,14.45
2019-04-25T23:31:05.122Z,14.73
2019-04-25T23:33:35.703Z,14.47
2019-04-25T23:36:07.023Z,14.68
2019-04-25T23:38:37.131Z,13.85
2019-04-25T23:41:07.627Z,14.98
2019-04-25T23:43:38.003Z,14.55
2019-04-25T23:46:08.265Z,14.60
2019-04-25T23:48:38.683Z,14.28
2019-04-25T23:51:09.023Z,13.50
2019-04-25T23:53:39.274Z,12.90
2019-04-25T23:56:09.227Z,13.08
2019-04-25T23:58:39.250Z,11.95
